createdAt,value
2022-08-23T00:03:41.058Z,3.10
2022-08-23T00:06:10.298Z,2.90
2022-08-23T00:08:39.038Z,2.97
2022-08-23T00:11:47.023Z,3.60
2022-08-23T00:14:20.130Z,3.42
2022-08-23T00:16:48.738Z,3.45
2022-08-23T00:19:18.298Z,3.08
2022-08-23T00:21:47.004Z,3.40
2022-08-23T00:24:16.043Z,3.55
2022-08-23T00:27:11.128Z,3.30
2022-08-23T00:29:51.762Z,3.13
2022-08-23T00:32:31.529Z,3.13
2022-08-23T00:35:01.397Z,3.28
2022-08-23T00:37:33.004Z,3.30
2022-08-23T00:40:03.486Z,3.53
2022-08-23T00:43:02.626Z,3.35
2022-08-23T00:46:06.011Z,3.63
2022-08-23T00:48:39.832Z,3.28
2022-08-23T00:51:24.755Z,3.45
2022-08-23T00:53:56.441Z,3.53
2022-08-23T00:56:25.897Z,3.30
2022-08-23T00:58:55.383Z,3.35
2022-08-23T01:01:25.635Z,3.20
2022-08-23T01:04:04.132Z,3.42
2022-08-23T01:06:40.454Z,3.47
2022-08-23T01:09:14.327Z,3.20
2022-08-23T01:12:01.361Z,3.63
2022-08-23T01:14:43.619Z,3.10
2022-08-23T01:17:39.000Z,4.38
2022-08-23T01:20:15.230Z,3.70
2022-08-23T01:23:01.935Z,3.97
2022-08-23T01:25:33.583Z,3.55
2022-08-23T01:28:02.647Z,3.40
2022-08-23T01:30:32.947Z,3.33
2022-08-23T01:33:05.850Z,3.75
2022-08-23T01:35:43.390Z,3.22
2022-08-23T01:38:12.473Z,3.53
2022-08-23T01:40:42.755Z,3.72
2022-08-23T01:43:13.627Z,3.83
2022-08-23T01:45:42.865Z,3.58
2022-08-23T01:50:42.761Z,3.60
2022-08-23T01:53:11.787Z,4.20
2022-08-23T01:55:43.996Z,3.40
2022-08-23T01:58:12.396Z,3.90
2022-08-23T02:00:42.257Z,3.90
2022-08-23T02:03:14.114Z,3.97
2022-08-23T02:05:43.567Z,4.30
2022-08-23T02:11:09.124Z,7.30
2022-08-23T02:13:39.103Z,3.63
2022-08-23T02:16:07.235Z,4.00
2022-08-23T02:18:35.242Z,3.60
2022-08-23T02:21:03.325Z,4.68
2022-08-23T02:23:35.087Z,4.18
2022-08-23T02:26:03.385Z,4.00
2022-08-23T02:28:32.408Z,3.88
2022-08-23T02:31:01.073Z,4.03
2022-08-23T02:33:32.813Z,4.18
2022-08-23T02:36:01.465Z,3.88
2022-08-23T02:38:29.235Z,4.03
2022-08-23T02:41:00.799Z,3.97
2022-08-23T02:43:32.930Z,4.28
2022-08-23T02:46:01.249Z,3.85
2022-08-23T02:48:32.602Z,4.25
2022-08-23T02:51:07.633Z,3.80
2022-08-23T02:53:35.821Z,4.28
2022-08-23T02:56:21.152Z,4.45
2022-08-23T02:58:54.358Z,4.63
2022-08-23T03:01:29.609Z,4.90
2022-08-23T03:04:06.014Z,4.53
2022-08-23T03:06:35.368Z,4.38
2022-08-23T03:09:06.016Z,4.82
2022-08-23T03:11:34.488Z,4.88
2022-08-23T03:14:07.388Z,4.03
2022-08-23T03:16:34.965Z,4.63
2022-08-23T03:19:04.229Z,4.25
2022-08-23T03:21:36.303Z,4.20
2022-08-23T03:24:10.053Z,3.78
2022-08-23T03:26:44.197Z,4.63
2022-08-23T03:29:12.025Z,4.70
2022-08-23T03:31:57.089Z,5.38
2022-08-23T03:34:25.888Z,4.55
2022-08-23T03:36:54.591Z,4.90
2022-08-23T03:39:22.503Z,4.97
2022-08-23T03:41:49.861Z,5.13
2022-08-23T03:44:18.266Z,5.55
2022-08-23T03:46:46.712Z,5.38
2022-08-23T03:49:14.782Z,4.95
2022-08-23T03:51:53.387Z,5.60
2022-08-23T03:54:24.152Z,5.40
2022-08-23T03:57:03.130Z,4.93
2022-08-23T03:59:37.157Z,5.07
2022-08-23T04:02:12.150Z,4.85
2022-08-23T04:04:39.932Z,4.97
2022-08-23T04:07:28.074Z,4.97
2022-08-23T04:09:58.334Z,4.93
2022-08-23T04:12:32.363Z,7.07
2022-08-23T04:15:02.593Z,5.70
2022-08-23T04:17:36.798Z,6.32
2022-08-23T04:20:06.414Z,6.90
2022-08-23T04:22:40.144Z,7.40
2022-08-23T04:25:26.123Z,7.40
2022-08-23T04:27:56.709Z,8.07
2022-08-23T04:30:25.390Z,7.47
2022-08-23T04:32:53.666Z,8.05
2022-08-23T04:35:23.581Z,8.70
2022-08-23T04:37:51.877Z,8.98
2022-08-23T04:40:38.623Z,9.55
2022-08-23T04:43:07.107Z,9.57
2022-08-23T04:45:37.948Z,10.90
2022-08-23T04:48:10.475Z,9.82
2022-08-23T04:50:47.849Z,10.90
2022-08-23T04:53:19.917Z,10.98
2022-08-23T04:55:56.228Z,11.30
2022-08-23T04:58:23.998Z,11.00
2022-08-23T05:00:54.609Z,11.10
2022-08-23T05:03:27.652Z,12.13
2022-08-23T05:08:34.176Z,10.32
2022-08-23T05:11:09.396Z,10.50
2022-08-23T05:13:38.213Z,9.45
2022-08-23T05:16:08.814Z,9.27
2022-08-23T05:18:41.631Z,9.70
2022-08-23T05:21:16.566Z,9.52
2022-08-23T05:23:50.959Z,9.63
2022-08-23T05:26:26.308Z,9.57
2022-08-23T05:28:54.020Z,10.40
2022-08-23T05:31:29.916Z,10.55
2022-08-23T05:34:04.014Z,10.60
2022-08-23T05:36:55.155Z,9.88
2022-08-23T05:39:36.966Z,8.85
2022-08-23T05:42:12.400Z,9.50
2022-08-23T05:44:40.610Z,9.32
2022-08-23T05:47:15.635Z,10.35
2022-08-23T05:49:54.792Z,9.88
2022-08-23T05:52:24.601Z,9.85
2022-08-23T05:54:52.096Z,11.70
2022-08-23T05:57:38.789Z,11.18
2022-08-23T06:00:15.937Z,11.50
2022-08-23T06:02:59.523Z,11.25
2022-08-23T06:05:29.376Z,11.38
2022-08-23T06:08:01.978Z,12.82
2022-08-23T06:10:29.623Z,11.85
2022-08-23T06:13:10.688Z,12.45
2022-08-23T06:15:43.945Z,12.98
2022-08-23T06:18:14.814Z,12.75
2022-08-23T06:20:43.905Z,12.45
2022-08-23T06:23:18.075Z,12.95
2022-08-23T06:25:45.755Z,13.68
2022-08-23T06:28:17.276Z,14.10
2022-08-23T06:30:44.773Z,13.90
2022-08-23T06:33:23.719Z,15.15
2022-08-23T06:36:13.972Z,15.02
2022-08-23T06:38:58.606Z,15.60
2022-08-23T06:42:28.023Z,15.07
2022-08-23T06:45:11.499Z,15.40
2022-08-23T06:47:41.363Z,15.50
2022-08-23T06:50:09.801Z,14.07
2022-08-23T06:52:56.035Z,13.88
2022-08-23T06:55:38.228Z,13.63
2022-08-23T06:58:29.174Z,14.30
2022-08-23T07:01:42.275Z,13.70
2022-08-23T07:04:10.915Z,12.73
2022-08-23T07:06:57.262Z,13.00
2022-08-23T07:09:28.772Z,13.00
2022-08-23T07:12:07.887Z,12.60
2022-08-23T07:14:38.978Z,12.35
2022-08-23T07:17:06.916Z,11.95
2022-08-23T07:19:36.040Z,12.65
2022-08-23T07:22:05.764Z,12.90
2022-08-23T07:24:37.259Z,13.07
2022-08-23T07:27:08.932Z,13.52
2022-08-23T07:29:48.401Z,13.10
2022-08-23T07:32:18.764Z,12.90
2022-08-23T07:34:47.739Z,12.77
2022-08-23T07:37:18.815Z,13.18
2022-08-23T07:39:47.604Z,13.38
2022-08-23T07:42:22.944Z,12.70
2022-08-23T07:44:54.037Z,11.55
2022-08-23T07:47:23.582Z,12.80
2022-08-23T07:49:52.826Z,11.95
2022-08-23T07:52:20.330Z,11.80
2022-08-23T07:54:49.431Z,12.07
2022-08-23T07:57:36.135Z,11.65
2022-08-23T08:00:15.042Z,11.60
2022-08-23T08:02:52.704Z,10.93
2022-08-23T08:05:28.773Z,12.10
2022-08-23T08:07:57.780Z,11.88
2022-08-23T08:10:25.587Z,11.13
2022-08-23T08:12:54.072Z,11.02
2022-08-23T08:15:24.413Z,12.20
2022-08-23T08:17:59.904Z,11.45
2022-08-23T08:20:49.376Z,11.18
2022-08-23T08:23:42.976Z,11.57
2022-08-23T08:26:40.865Z,10.98
2022-08-23T08:29:12.500Z,11.32
2022-08-23T08:31:44.611Z,10.85
2022-08-23T08:34:12.794Z,10.73
2022-08-23T08:36:44.482Z,11.00
2022-08-23T08:39:21.990Z,11.02
2022-08-23T08:42:05.041Z,9.77
2022-08-23T08:44:49.937Z,11.20
2022-08-23T08:47:49.964Z,10.23
2022-08-23T08:50:37.868Z,9.18
2022-08-23T08:53:43.598Z,10.35
2022-08-23T08:56:32.818Z,10.02
2022-08-23T08:59:27.504Z,9.40
2022-08-23T09:01:58.158Z,10.10
2022-08-23T09:04:34.938Z,10.35
2022-08-23T09:07:08.930Z,8.68
2022-08-23T09:09:59.785Z,8.60
2022-08-23T09:13:04.651Z,9.18
2022-08-23T09:16:03.221Z,8.02
2022-08-23T09:18:35.947Z,8.35
2022-08-23T09:21:07.760Z,9.18
2022-08-23T09:23:42.473Z,8.32
2022-08-23T09:26:24.314Z,7.55
2022-08-23T09:28:54.508Z,7.55
2022-08-23T09:31:43.510Z,7.70
2022-08-23T09:34:22.389Z,8.77
2022-08-23T09:37:25.386Z,10.05
2022-08-23T09:40:16.423Z,8.43
2022-08-23T09:42:47.533Z,8.85
2022-08-23T09:45:52.301Z,6.55
2022-08-23T09:48:42.901Z,6.00
2022-08-23T09:51:18.082Z,5.72
2022-08-23T09:53:51.327Z,6.18
2022-08-23T09:56:26.408Z,5.20
2022-08-23T09:58:57.447Z,5.00
2022-08-23T10:01:39.714Z,4.88
2022-08-23T10:04:41.445Z,4.10
2022-08-23T10:07:38.616Z,4.00
2022-08-23T10:10:24.794Z,4.72
2022-08-23T10:13:06.721Z,4.45
2022-08-23T10:16:22.119Z,4.72
2022-08-23T10:19:21.854Z,3.50
2022-08-23T10:22:21.454Z,6.80
2022-08-23T10:25:19.680Z,7.28
2022-08-23T10:31:06.482Z,6.20
2022-08-23T10:34:14.740Z,6.97
2022-08-23T10:37:02.073Z,7.30
2022-08-23T10:39:32.568Z,6.65
2022-08-23T10:42:18.982Z,6.03
2022-08-23T10:44:53.984Z,4.25
2022-08-23T10:47:37.876Z,4.18
2022-08-23T10:50:16.958Z,2.80
2022-08-23T10:53:09.645Z,2.10
2022-08-23T10:56:07.693Z,3.30
2022-08-23T10:59:10.393Z,3.67
2022-08-23T11:01:57.038Z,3.90
2022-08-23T11:05:13.695Z,3.28
2022-08-23T11:07:43.127Z,2.35
2022-08-23T11:10:25.858Z,2.80
2022-08-23T11:13:07.551Z,2.20
2022-08-23T11:16:02.664Z,2.17
2022-08-23T11:18:48.965Z,2.10
2022-08-23T11:21:33.863Z,1.90
2022-08-23T11:24:06.874Z,2.17
2022-08-23T11:26:38.277Z,2.30
2022-08-23T11:29:07.089Z,2.10
2022-08-23T11:32:13.135Z,1.90
2022-08-23T11:35:09.430Z,2.70
2022-08-23T11:38:03.833Z,2.03
2022-08-23T11:40:57.568Z,1.98
2022-08-23T11:43:38.252Z,2.38
2022-08-23T11:46:18.374Z,1.75
2022-08-23T11:49:01.091Z,1.63
2022-08-23T11:51:36.139Z,1.88
2022-08-23T11:54:24.510Z,2.00
2022-08-23T11:57:23.816Z,2.00
2022-08-23T12:00:36.868Z,2.17
2022-08-23T12:06:39.223Z,2.00
2022-08-23T12:09:36.087Z,2.05
2022-08-23T12:12:24.768Z,2.00
2022-08-23T12:14:56.481Z,1.83
2022-08-23T12:17:26.234Z,2.22
2022-08-23T12:20:11.323Z,2.08
2022-08-23T12:23:14.256Z,2.20
2022-08-23T12:25:44.998Z,2.38
2022-08-23T12:28:33.044Z,2.22
2022-08-23T12:31:19.148Z,2.67
2022-08-23T12:33:54.254Z,2.80
2022-08-23T12:36:46.128Z,2.72
2022-08-23T12:39:24.628Z,2.30
2022-08-23T12:42:00.279Z,2.38
2022-08-23T12:44:58.913Z,2.30
2022-08-23T12:47:33.360Z,2.45
2022-08-23T12:50:48.312Z,2.40
2022-08-23T12:53:42.645Z,2.45
2022-08-23T12:56:31.365Z,2.10
2022-08-23T12:59:07.204Z,2.08
2022-08-23T13:01:39.052Z,2.60
2022-08-23T13:04:13.889Z,2.10
2022-08-23T13:06:42.263Z,1.90
2022-08-23T13:09:16.889Z,1.58
2022-08-23T13:11:46.034Z,2.05
2022-08-23T13:14:31.793Z,1.98
2022-08-23T13:17:25.120Z,2.20
2022-08-23T13:20:04.700Z,1.88
2022-08-23T13:22:37.219Z,1.70
2022-08-23T13:25:27.428Z,1.45
2022-08-23T13:28:01.616Z,1.73
2022-08-23T13:30:37.748Z,1.80
2022-08-23T13:33:08.167Z,1.58
2022-08-23T13:35:54.179Z,1.80
2022-08-23T13:38:32.429Z,1.63
2022-08-23T13:41:05.445Z,1.60
2022-08-23T13:43:45.423Z,1.95
2022-08-23T13:51:38.991Z,1.50
2022-08-23T13:54:09.188Z,1.25
2022-08-23T13:59:34.714Z,1.38
2022-08-23T14:02:08.872Z,1.42
2022-08-23T14:04:39.456Z,1.50
2022-08-23T14:07:08.030Z,1.50
2022-08-23T14:09:36.975Z,1.67
2022-08-23T14:12:21.935Z,1.30
2022-08-23T14:14:50.249Z,1.25
2022-08-23T14:17:31.453Z,1.40
2022-08-23T14:22:46.803Z,1.33
2022-08-23T14:25:15.912Z,1.77
2022-08-23T14:27:45.689Z,1.77
2022-08-23T14:30:32.805Z,1.50
2022-08-23T14:33:01.531Z,1.52
2022-08-23T14:35:31.948Z,1.50
2022-08-23T14:38:03.188Z,1.45
2022-08-23T14:40:52.700Z,1.30
2022-08-23T14:43:22.035Z,1.10
2022-08-23T14:45:50.578Z,1.60
2022-08-23T14:48:19.795Z,1.20
2022-08-23T14:50:49.822Z,1.65
2022-08-23T14:55:46.186Z,1.30
2022-08-23T14:58:13.926Z,1.40
2022-08-23T15:00:41.775Z,1.33
2022-08-23T15:03:11.122Z,1.60
2022-08-23T15:05:39.085Z,1.15
2022-08-23T15:08:07.537Z,1.50
2022-08-23T15:11:33.191Z,1.52
2022-08-23T15:13:32.514Z,1.55
2022-08-23T15:16:04.893Z,1.20
2022-08-23T15:18:35.528Z,1.20
2022-08-23T15:21:03.120Z,1.35
2022-08-23T15:23:33.688Z,1.30
2022-08-23T15:26:02.326Z,1.20
2022-08-23T15:28:31.529Z,1.10
2022-08-23T15:31:01.449Z,1.40
2022-08-23T15:33:32.266Z,1.42
2022-08-23T15:36:04.272Z,1.33
2022-08-23T15:38:33.577Z,1.40
2022-08-23T15:41:01.353Z,1.40
2022-08-23T15:43:34.175Z,1.10
2022-08-23T15:46:20.646Z,1.48
2022-08-23T15:49:14.261Z,1.20
2022-08-23T15:51:47.908Z,1.30
2022-08-23T15:54:15.523Z,1.20
2022-08-23T15:56:48.228Z,1.55
2022-08-23T15:59:18.563Z,1.50
2022-08-23T16:01:46.857Z,1.25
2022-08-23T16:04:21.605Z,1.20
2022-08-23T16:06:49.512Z,1.00
2022-08-23T16:09:21.303Z,1.25
2022-08-23T16:11:59.655Z,1.30
2022-08-23T16:14:33.137Z,1.25
2022-08-23T16:17:03.297Z,1.55
2022-08-23T16:19:32.513Z,1.00
2022-08-23T16:22:03.077Z,1.10
2022-08-23T16:27:06.051Z,1.38
2022-08-23T16:29:41.744Z,1.77
2022-08-23T16:32:09.809Z,1.23
2022-08-23T16:34:37.439Z,1.40
2022-08-23T16:37:10.821Z,1.33
2022-08-23T16:39:38.383Z,1.30
2022-08-23T16:42:07.035Z,1.27
2022-08-23T16:44:35.341Z,1.15
2022-08-23T16:47:08.141Z,1.13
2022-08-23T16:49:38.866Z,1.15
2022-08-23T16:52:11.525Z,1.00
2022-08-23T16:54:48.290Z,2.00
2022-08-23T16:57:18.096Z,11.20
2022-08-23T16:59:48.439Z,8.73
2022-08-23T17:02:34.364Z,10.23
2022-08-23T17:05:02.902Z,6.00
2022-08-23T17:07:31.143Z,3.13
2022-08-23T17:10:01.104Z,13.00
2022-08-23T17:12:29.121Z,7.07
2022-08-23T17:14:59.333Z,1.70
2022-08-23T17:17:28.982Z,1.80
2022-08-23T17:20:10.245Z,1.30
2022-08-23T17:22:38.340Z,1.10
2022-08-23T17:25:07.846Z,1.15
2022-08-23T17:27:43.215Z,0.90
2022-08-23T17:30:17.144Z,0.85
2022-08-23T17:32:49.535Z,1.00
2022-08-23T17:35:20.672Z,1.10
2022-08-23T17:37:53.346Z,1.15
2022-08-23T17:40:30.033Z,1.10
2022-08-23T17:43:03.994Z,1.02
2022-08-23T17:45:40.760Z,0.98
2022-08-23T17:48:12.305Z,1.10
2022-08-23T17:50:40.295Z,1.08
2022-08-23T17:53:07.668Z,1.17
2022-08-23T17:55:40.711Z,1.00
2022-08-23T17:58:10.431Z,1.00
2022-08-23T18:00:39.593Z,1.02
2022-08-23T18:03:08.646Z,1.02
2022-08-23T18:05:41.459Z,1.20
2022-08-23T18:08:10.531Z,1.08
2022-08-23T18:10:38.121Z,1.52
2022-08-23T18:13:08.141Z,1.00
2022-08-23T18:15:36.153Z,1.10
2022-08-23T18:18:07.671Z,0.98
2022-08-23T18:20:36.210Z,1.13
2022-08-23T18:23:06.179Z,0.90
2022-08-23T18:25:38.809Z,0.90
2022-08-23T18:28:09.027Z,0.90
2022-08-23T18:30:58.956Z,1.10
2022-08-23T18:33:46.182Z,1.17
2022-08-23T18:36:20.424Z,1.10
2022-08-23T18:38:48.911Z,1.15
2022-08-23T18:41:17.898Z,1.23
2022-08-23T18:43:48.071Z,1.35
2022-08-23T18:46:16.017Z,1.60
2022-08-23T18:48:47.913Z,1.70
2022-08-23T18:51:25.372Z,1.42
2022-08-23T18:53:53.645Z,1.52
2022-08-23T18:56:21.451Z,1.50
2022-08-23T18:58:50.993Z,1.42
2022-08-23T19:01:22.697Z,1.77
2022-08-23T19:03:56.012Z,1.65
2022-08-23T19:06:25.966Z,1.10
2022-08-23T19:09:01.338Z,1.23
2022-08-23T19:11:37.499Z,1.50
2022-08-23T19:14:06.727Z,1.20
2022-08-23T19:16:37.103Z,1.20
2022-08-23T19:19:06.064Z,1.10
2022-08-23T19:21:34.238Z,1.60
2022-08-23T19:24:06.391Z,1.10
2022-08-23T19:26:38.153Z,1.57
2022-08-23T19:29:08.826Z,1.35
2022-08-23T19:31:50.097Z,1.25
2022-08-23T19:34:20.199Z,1.83
2022-08-23T19:37:00.770Z,1.45
2022-08-23T19:39:34.607Z,1.40
2022-08-23T19:42:11.089Z,1.70
2022-08-23T19:44:40.161Z,1.80
2022-08-23T19:47:19.417Z,1.70
2022-08-23T19:49:49.318Z,1.60
2022-08-23T19:52:17.010Z,1.50
2022-08-23T19:54:46.078Z,1.90
2022-08-23T19:57:13.644Z,1.75
2022-08-23T19:59:41.029Z,1.90
2022-08-23T20:02:10.953Z,1.80
2022-08-23T20:08:06.094Z,1.83
2022-08-23T20:10:37.474Z,1.67
2022-08-23T20:13:07.685Z,1.90
2022-08-23T20:15:35.546Z,2.10
2022-08-23T20:18:06.329Z,1.90
2022-08-23T20:20:34.898Z,2.15
2022-08-23T20:23:24.694Z,2.15
2022-08-23T20:25:57.539Z,2.83
2022-08-23T20:28:27.590Z,2.65
2022-08-23T20:30:57.384Z,2.72
2022-08-23T20:33:26.676Z,2.85
2022-08-23T20:35:54.595Z,3.00
2022-08-23T20:38:33.027Z,2.92
2022-08-23T20:41:05.611Z,2.97
2022-08-23T20:43:35.005Z,3.55
2022-08-23T20:46:16.019Z,3.63
2022-08-23T20:48:44.972Z,3.10
2022-08-23T20:51:14.085Z,3.50
2022-08-23T20:53:41.716Z,3.72
2022-08-23T20:56:13.743Z,3.42
2022-08-23T20:58:41.196Z,3.25
2022-08-23T21:01:10.215Z,3.72
2022-08-23T21:03:43.383Z,4.15
2022-08-23T21:06:23.762Z,4.47
2022-08-23T21:08:59.557Z,4.55
2022-08-23T21:11:29.004Z,4.97
2022-08-23T21:13:58.755Z,5.80
2022-08-23T21:16:26.858Z,4.93
2022-08-23T21:18:56.959Z,5.10
2022-08-23T21:21:27.840Z,5.45
2022-08-23T21:23:56.751Z,5.30
2022-08-23T21:26:27.097Z,6.47
2022-08-23T21:29:12.002Z,6.78
2022-08-23T21:31:42.357Z,6.63
2022-08-23T21:34:09.840Z,6.00
2022-08-23T21:36:37.748Z,5.25
2022-08-23T21:39:06.540Z,5.45
2022-08-23T21:41:43.886Z,5.78
2022-08-23T21:44:19.175Z,6.55
2022-08-23T21:46:50.692Z,5.95
2022-08-23T21:49:21.133Z,5.90
2022-08-23T21:51:56.011Z,5.63
2022-08-23T21:54:24.831Z,6.00
2022-08-23T21:56:53.315Z,6.00
2022-08-23T21:59:20.742Z,6.25
2022-08-23T22:01:48.282Z,6.60
2022-08-23T22:04:16.140Z,7.20
2022-08-23T22:06:45.931Z,6.82
2022-08-23T22:09:17.106Z,7.05
2022-08-23T22:11:49.349Z,6.15
2022-08-23T22:14:24.073Z,6.82
2022-08-23T22:16:55.405Z,7.07
2022-08-23T22:19:23.175Z,6.85
2022-08-23T22:21:52.959Z,6.35
2022-08-23T22:24:25.496Z,6.45
2022-08-23T22:26:55.825Z,6.93
2022-08-23T22:29:25.274Z,7.03
2022-08-23T22:31:52.767Z,7.33
2022-08-23T22:34:20.686Z,6.25
2022-08-23T22:36:52.118Z,7.50
2022-08-23T22:39:23.498Z,7.30
2022-08-23T22:41:51.138Z,7.40
2022-08-23T22:44:20.792Z,7.68
2022-08-23T22:46:49.002Z,7.50
2022-08-23T22:49:16.898Z,7.22
2022-08-23T22:51:45.088Z,7.60
2022-08-23T22:54:12.815Z,7.75
2022-08-23T22:56:50.749Z,7.45
2022-08-23T22:59:20.964Z,7.18
2022-08-23T23:01:52.188Z,7.38
2022-08-23T23:04:23.088Z,8.98
2022-08-23T23:06:51.158Z,8.50
2022-08-23T23:09:19.081Z,8.20
2022-08-23T23:11:46.677Z,7.88
2022-08-23T23:14:16.054Z,7.18
2022-08-23T23:16:44.511Z,6.72
2022-08-23T23:19:31.205Z,6.40
2022-08-23T23:21:59.523Z,6.40
2022-08-23T23:24:32.358Z,7.22
2022-08-23T23:27:01.402Z,6.75
2022-08-23T23:29:29.344Z,7.68
2022-08-23T23:31:57.351Z,9.10
2022-08-23T23:34:28.276Z,7.90
2022-08-23T23:36:57.644Z,7.80
2022-08-23T23:39:27.545Z,9.32
2022-08-23T23:41:55.112Z,9.02
2022-08-23T23:44:29.891Z,8.98
2022-08-23T23:47:02.682Z,8.27
2022-08-23T23:49:33.636Z,8.23
2022-08-23T23:52:06.473Z,9.15
2022-08-23T23:54:38.958Z,9.57
2022-08-23T23:57:08.092Z,9.20
2022-08-23T23:59:36.032Z,9.82
